Portmarnock, Ireland
Current Conditions -  °F | °C
As of 3:30 PM on Friday 19 Dec 2014 (Local Time) from EIDW Reporting Station
Scattered Clouds Scattered Clouds  
Wind Chill: 36°   Ceiling: Unl
Heat Index: 45°   Visibility: 6mi
Dew Point: 37°   Wind: 22mph
Humidity: 76%   Direction: 250°WSW
Pressure: 30"   Gusts: NA
Location:  53.42°N, 6.14°W
Report Text: EIDW 191530Z 25019KT 9999 FEW019 SCT032 07/03 Q1016 NOSIG
Loading
Personal Weather Stations






























Interactive Weather Map New forecast layout! Learn more

10-Day Weather Forecast

Advertisements
Track Severe Weather on mobile